Terminal Aerodrome Forecast
Issued by NWS Louisville, KY

Home | Current Version | Previous Version | Text Only | Print | Product List | Glossary On
Versions: 1 2 3 4 5 6 7 8 9 10 11 12 13
000
FTUS43 KLMK 252320
TAFLEX
TAF
KLEX 252320Z 2600/2624 VRB03KT P6SM BKN080
     FM260400 17005KT P6SM FEW070 SCT150
     FM261500 30010G17KT P6SM VCSH BKN035
      TEMPO 2616/2619 -SHRA BKN025
     FM262100 29010KT P6SM SCT090=

USA.gov is the U.S. government's official web portal to all federal, state and local government web resources and services.